createdAt,value
2022-08-12T00:00:54.157Z,18.40
2022-08-12T00:05:14.637Z,18.30
2022-08-12T00:09:35.152Z,18.20
2022-08-12T00:13:56.274Z,18.10
2022-08-12T00:18:16.898Z,18.00
2022-08-12T00:22:38.301Z,17.90
2022-08-12T00:27:01.654Z,17.80
2022-08-12T00:31:22.308Z,17.70
2022-08-12T00:35:42.799Z,17.70
2022-08-12T00:40:10.695Z,17.60
2022-08-12T00:44:15.571Z,17.40
2022-08-12T00:48:18.243Z,17.40
2022-08-12T00:52:20.667Z,17.30
2022-08-12T00:56:24.005Z,17.20
2022-08-12T01:00:25.724Z,17.10
2022-08-12T01:04:48.884Z,17.00
2022-08-12T01:09:11.296Z,17.00
2022-08-12T01:13:19.343Z,17.00
2022-08-12T01:17:22.881Z,16.90
2022-08-12T01:21:27.298Z,16.90
2022-08-12T01:25:33.254Z,16.90
2022-08-12T01:29:43.777Z,16.70
2022-08-12T01:34:03.867Z,16.70
2022-08-12T01:38:11.660Z,16.50
2022-08-12T01:42:17.304Z,16.50
2022-08-12T01:46:40.486Z,16.40
2022-08-12T01:51:09.554Z,16.40
2022-08-12T01:55:14.405Z,16.30
2022-08-12T01:59:45.939Z,16.20
2022-08-12T02:04:23.820Z,16.10
2022-08-12T02:09:04.789Z,16.00
2022-08-12T02:13:49.304Z,16.00
2022-08-12T02:18:04.730Z,15.80
2022-08-12T02:22:12.778Z,15.90
2022-08-12T02:26:16.239Z,15.70
2022-08-12T02:30:24.205Z,15.70
2022-08-12T02:34:27.603Z,15.60
2022-08-12T02:38:31.150Z,15.60
2022-08-12T02:42:34.712Z,15.50
2022-08-12T02:46:39.275Z,15.40
2022-08-12T02:50:46.612Z,15.30
2022-08-12T02:54:53.420Z,15.20
2022-08-12T02:58:55.641Z,15.10
2022-08-12T03:03:04.554Z,15.00
2022-08-12T03:07:10.508Z,14.90
2022-08-12T03:11:29.063Z,14.90
2022-08-12T03:15:33.057Z,14.80
2022-08-12T03:19:37.685Z,14.70
2022-08-12T03:24:00.234Z,14.70
2022-08-12T03:28:03.987Z,14.70
2022-08-12T03:32:07.531Z,14.60
2022-08-12T03:36:35.067Z,14.60
2022-08-12T03:41:07.967Z,14.50
2022-08-12T03:45:34.207Z,14.40
2022-08-12T03:50:04.521Z,14.30
2022-08-12T03:54:25.353Z,14.30
2022-08-12T04:03:02.801Z,14.10
2022-08-12T04:07:08.830Z,14.10
2022-08-12T04:11:32.131Z,14.00
2022-08-12T04:15:34.308Z,14.00
2022-08-12T04:19:37.190Z,13.90
2022-08-12T04:23:46.214Z,13.90
2022-08-12T04:27:50.893Z,13.90
2022-08-12T04:31:55.777Z,13.80
2022-08-12T04:35:57.571Z,13.90
2022-08-12T04:39:59.693Z,14.00
2022-08-12T04:44:02.655Z,14.00
2022-08-12T04:48:07.905Z,14.00
2022-08-12T04:52:09.959Z,14.00
2022-08-12T04:56:11.723Z,14.00
2022-08-12T05:00:14.780Z,14.10
2022-08-12T05:04:18.785Z,14.40
2022-08-12T05:08:22.387Z,14.60
2022-08-12T05:12:25.980Z,14.60
2022-08-12T05:16:30.812Z,14.70
2022-08-12T05:20:33.842Z,14.70
2022-08-12T05:24:36.714Z,14.80
2022-08-12T05:28:38.441Z,14.80
2022-08-12T05:32:40.323Z,14.90
2022-08-12T05:36:43.903Z,15.00
2022-08-12T05:40:45.899Z,15.00
2022-08-12T05:44:47.559Z,15.20
2022-08-12T05:48:51.201Z,15.30
2022-08-12T05:52:53.841Z,15.40
2022-08-12T05:56:55.750Z,15.60
2022-08-12T06:00:57.597Z,15.70
2022-08-12T06:05:00.221Z,15.90
2022-08-12T06:09:01.952Z,16.00
2022-08-12T06:13:05.363Z,16.30
2022-08-12T06:17:08.943Z,16.50
2022-08-12T06:21:14.262Z,16.90
2022-08-12T06:25:19.214Z,17.20
2022-08-12T06:30:07.087Z,17.60
2022-08-12T06:34:00.258Z,18.00
2022-08-12T06:38:25.052Z,18.40
2022-08-12T06:42:45.467Z,18.80
2022-08-12T06:46:47.501Z,19.10
2022-08-12T06:50:49.175Z,19.40
2022-08-12T06:54:51.619Z,19.80
2022-08-12T06:58:53.336Z,20.40
2022-08-12T07:02:55.896Z,21.00
2022-08-12T07:06:57.620Z,21.30
2022-08-12T07:11:02.087Z,21.80
2022-08-12T07:15:04.248Z,22.00
2022-08-12T07:19:05.960Z,22.20
2022-08-12T07:23:08.431Z,22.50
2022-08-12T07:27:10.130Z,22.60
2022-08-12T07:31:12.384Z,22.70
2022-08-12T07:35:20.194Z,22.90
2022-08-12T07:39:21.928Z,22.90
2022-08-12T07:43:24.131Z,23.10
2022-08-12T07:47:27.363Z,23.20
2022-08-12T07:51:29.727Z,23.30
2022-08-12T07:55:31.415Z,23.40
2022-08-12T07:59:35.012Z,23.50
2022-08-12T08:03:47.526Z,23.80
2022-08-12T08:07:53.201Z,24.10
2022-08-12T08:12:19.425Z,24.40
2022-08-12T08:16:21.460Z,24.50
2022-08-12T08:20:28.137Z,24.70
2022-08-12T08:24:31.306Z,24.80
2022-08-12T08:28:36.440Z,25.10
2022-08-12T08:32:39.477Z,25.30
2022-08-12T08:36:41.934Z,25.30
2022-08-12T08:41:04.797Z,25.50
2022-08-12T08:45:12.878Z,25.90
2022-08-12T08:49:15.435Z,26.70
2022-08-12T08:53:18.123Z,27.40
2022-08-12T08:57:20.443Z,28.10
2022-08-12T09:01:22.758Z,29.00
2022-08-12T09:05:25.852Z,30.00
2022-08-12T09:14:12.498Z,30.80
2022-08-12T09:18:11.897Z,31.60
2022-08-12T09:22:18.517Z,31.60
2022-08-12T09:26:22.789Z,31.60
2022-08-12T09:30:41.710Z,31.60
2022-08-12T09:34:46.255Z,31.70
2022-08-12T09:38:58.924Z,32.40
2022-08-12T09:43:21.631Z,32.80
2022-08-12T09:47:29.519Z,33.10
2022-08-12T09:51:38.328Z,33.60
2022-08-12T09:56:05.482Z,33.30
2022-08-12T10:00:14.016Z,33.30
2022-08-12T10:04:20.474Z,32.90
2022-08-12T10:08:23.767Z,33.10
2022-08-12T10:13:07.758Z,32.60
2022-08-12T10:17:08.921Z,32.20
2022-08-12T10:21:19.523Z,32.00
2022-08-12T10:26:33.893Z,32.00
2022-08-12T10:30:38.144Z,31.70
2022-08-12T10:34:26.516Z,31.60
2022-08-12T10:38:34.940Z,32.20
2022-08-12T10:43:00.988Z,32.20
2022-08-12T10:47:25.951Z,32.60
2022-08-12T10:52:02.797Z,32.60
2022-08-12T10:55:56.498Z,32.90
2022-08-12T11:00:35.452Z,33.00
2022-08-12T11:04:41.291Z,33.10
2022-08-12T11:08:47.085Z,33.20
2022-08-12T11:12:58.674Z,32.50
2022-08-12T11:17:44.010Z,31.90
2022-08-12T11:21:57.105Z,31.90
2022-08-12T11:25:56.429Z,31.40
2022-08-12T11:30:01.461Z,31.30
2022-08-12T11:34:51.505Z,31.60
2022-08-12T11:38:30.146Z,31.40
2022-08-12T11:42:32.218Z,31.50
2022-08-12T11:46:38.395Z,31.80
2022-08-12T11:50:43.686Z,31.60
2022-08-12T11:54:51.036Z,31.70
2022-08-12T12:01:59.111Z,31.70
2022-08-12T12:03:17.341Z,31.70
2022-08-12T12:07:19.140Z,31.70
2022-08-12T12:11:22.455Z,31.60
2022-08-12T12:15:25.104Z,31.80
2022-08-12T12:19:46.598Z,32.20
2022-08-12T12:23:48.361Z,32.20
2022-08-12T12:28:06.173Z,32.00
2022-08-12T12:32:11.802Z,31.60
2022-08-12T12:36:20.250Z,31.50
2022-08-12T12:40:30.120Z,31.60
2022-08-12T12:44:38.748Z,31.50
2022-08-12T12:48:55.226Z,31.80
2022-08-12T12:52:57.915Z,31.70
2022-08-12T12:57:00.743Z,31.90
2022-08-12T13:01:04.825Z,32.00
2022-08-12T13:05:42.714Z,31.90
2022-08-12T13:09:54.191Z,32.10
2022-08-12T13:14:08.795Z,32.00
2022-08-12T13:18:15.271Z,32.30
2022-08-12T13:22:20.501Z,32.50
2022-08-12T13:26:32.888Z,32.50
2022-08-12T13:30:36.315Z,32.20
2022-08-12T13:34:38.382Z,32.40
2022-08-12T13:38:42.134Z,32.30
2022-08-12T13:42:49.032Z,32.50
2022-08-12T13:46:58.748Z,32.30
2022-08-12T13:51:04.285Z,32.30
2022-08-12T13:55:06.605Z,32.40
2022-08-12T13:59:08.748Z,32.20
2022-08-12T14:03:12.334Z,32.00
2022-08-12T14:07:14.080Z,32.00
2022-08-12T14:11:15.790Z,31.90
2022-08-12T14:15:17.697Z,31.90
2022-08-12T14:19:24.889Z,32.00
2022-08-12T14:24:05.182Z,31.90
2022-08-12T14:28:04.377Z,31.60
2022-08-12T14:32:07.902Z,31.50
2022-08-12T14:36:24.013Z,32.00
2022-08-12T14:40:28.632Z,32.10
2022-08-12T14:44:57.913Z,32.20
2022-08-12T14:48:54.386Z,31.90
2022-08-12T14:57:23.805Z,31.70
2022-08-12T15:01:44.506Z,31.30
2022-08-12T15:06:06.341Z,31.30
2022-08-12T15:10:13.283Z,31.10
2022-08-12T15:14:15.284Z,31.00
2022-08-12T15:18:22.894Z,30.80
2022-08-12T15:22:38.100Z,30.80
2022-08-12T15:26:41.571Z,30.80
2022-08-12T15:30:43.217Z,30.60
2022-08-12T15:34:46.861Z,30.60
2022-08-12T15:38:51.618Z,30.60
2022-08-12T15:42:54.723Z,30.30
2022-08-12T15:46:56.426Z,30.20
2022-08-12T15:50:59.313Z,30.00
2022-08-12T15:55:06.346Z,30.00
2022-08-12T15:59:15.534Z,30.00
2022-08-12T16:03:28.566Z,29.80
2022-08-12T16:07:50.813Z,29.80
2022-08-12T16:11:52.551Z,29.70
2022-08-12T16:16:02.428Z,29.60
2022-08-12T16:20:06.404Z,29.60
2022-08-12T16:24:08.379Z,29.50
2022-08-12T16:28:12.500Z,29.50
2022-08-12T16:32:19.294Z,29.40
2022-08-12T16:36:28.524Z,29.30
2022-08-12T16:40:39.305Z,29.30
2022-08-12T16:44:49.674Z,29.40
2022-08-12T16:49:08.582Z,29.30
2022-08-12T16:53:17.643Z,29.30
2022-08-12T16:57:20.154Z,29.30
2022-08-12T17:01:37.460Z,29.10
2022-08-12T17:05:40.529Z,29.10
2022-08-12T17:09:51.599Z,29.00
2022-08-12T17:13:55.091Z,29.00
2022-08-12T17:18:15.458Z,29.00
2022-08-12T17:22:22.024Z,28.70
2022-08-12T17:26:30.842Z,28.70
2022-08-12T17:30:59.511Z,28.70
2022-08-12T17:35:20.908Z,28.60
2022-08-12T17:39:23.539Z,28.40
2022-08-12T17:43:54.855Z,28.30
2022-08-12T17:48:04.828Z,28.20
2022-08-12T17:52:08.470Z,28.20
2022-08-12T17:56:12.281Z,28.20
2022-08-12T18:00:18.086Z,28.20
2022-08-12T18:04:22.730Z,28.00
2022-08-12T18:08:40.097Z,27.80
2022-08-12T18:12:47.974Z,27.80
2022-08-12T18:16:54.503Z,27.70
2022-08-12T18:20:57.496Z,27.60
2022-08-12T18:25:03.941Z,27.40
2022-08-12T18:29:07.126Z,27.20
2022-08-12T18:33:12.099Z,27.00
2022-08-12T18:37:41.993Z,27.00
2022-08-12T18:41:39.463Z,26.80
2022-08-12T18:45:56.759Z,26.60
2022-08-12T18:49:59.049Z,26.50
2022-08-12T18:54:07.625Z,26.20
2022-08-12T18:58:13.829Z,26.00
2022-08-12T19:02:24.782Z,25.70
2022-08-12T19:06:41.468Z,25.30
2022-08-12T19:10:50.534Z,25.00
2022-08-12T19:15:03.919Z,24.80
2022-08-12T19:19:09.208Z,24.50
2022-08-12T19:23:16.491Z,24.20
2022-08-12T19:27:23.605Z,23.80
2022-08-12T19:31:57.242Z,23.50
2022-08-12T19:36:07.776Z,23.10
2022-08-12T19:40:32.655Z,22.90
2022-08-12T19:44:37.683Z,22.70
2022-08-12T19:48:40.941Z,22.50
2022-08-12T19:52:45.059Z,22.30
2022-08-12T19:56:50.503Z,22.10
2022-08-12T20:00:54.391Z,21.90
2022-08-12T20:06:03.575Z,21.70
2022-08-12T20:09:19.704Z,21.50
2022-08-12T20:13:26.979Z,21.40
2022-08-12T20:17:51.283Z,21.30
2022-08-12T20:21:54.878Z,21.20
2022-08-12T20:26:01.879Z,21.10
2022-08-12T20:30:07.548Z,21.00
2022-08-12T20:34:09.362Z,21.00
2022-08-12T20:38:26.376Z,20.80
2022-08-12T20:42:31.934Z,20.70
2022-08-12T20:46:33.897Z,20.60
2022-08-12T20:50:36.487Z,20.40
2022-08-12T20:54:48.070Z,20.30
2022-08-12T20:58:57.734Z,20.30
2022-08-12T21:03:19.516Z,20.10
2022-08-12T21:07:23.518Z,20.00
2022-08-12T21:11:25.501Z,19.90
2022-08-12T21:15:30.657Z,19.80
2022-08-12T21:19:52.811Z,19.70
2022-08-12T21:23:56.525Z,19.70
2022-08-12T21:28:07.376Z,19.50
2022-08-12T21:32:39.595Z,19.50
2022-08-12T21:36:35.199Z,19.40
2022-08-12T21:40:51.856Z,19.30
2022-08-12T21:45:47.485Z,19.20
2022-08-12T21:49:55.374Z,19.00
2022-08-12T21:54:06.892Z,19.00
2022-08-12T21:58:16.611Z,18.90
2022-08-12T22:02:37.015Z,18.90
2022-08-12T22:06:43.941Z,19.00
2022-08-12T22:10:46.408Z,19.10
2022-08-12T22:14:48.623Z,19.10
2022-08-12T22:18:52.223Z,19.10
2022-08-12T22:22:56.775Z,19.20
2022-08-12T22:27:14.366Z,19.20
2022-08-12T22:31:27.052Z,19.20
2022-08-12T22:35:55.783Z,19.20
2022-08-12T22:39:53.542Z,19.50
2022-08-12T22:44:15.055Z,19.60
2022-08-12T22:48:21.957Z,19.90
2022-08-12T22:52:28.670Z,20.30
2022-08-12T22:56:35.266Z,20.50
2022-08-12T23:00:38.532Z,20.70
2022-08-12T23:04:40.323Z,21.20
2022-08-12T23:08:45.159Z,21.40
2022-08-12T23:13:05.444Z,21.70
2022-08-12T23:17:07.529Z,21.70
2022-08-12T23:21:24.569Z,21.70
2022-08-12T23:25:32.728Z,22.00
2022-08-12T23:30:18.004Z,21.90
2022-08-12T23:34:14.594Z,21.90
2022-08-12T23:38:31.153Z,21.90
2022-08-12T23:42:33.626Z,22.00
2022-08-12T23:46:36.740Z,21.90
2022-08-12T23:50:41.160Z,21.90
2022-08-12T23:54:58.309Z,21.80
2022-08-12T23:59:10.114Z,21.70
